Time;durP1;ratioP1;P1;durP2;ratioP2;P2;SDS_P1;SDS_P2;PMS_P1;PMS_P2;Temp;Humidity;BMP_temperature;BMP_pressure;BME280_temperature;BME280_humidity;BME280_pressure;Samples;Min_cycle;Max_cycle;Signal;HPM_P1;HPM_P2
2023/05/19 00:01:51;;;;;;;13.45;5.55;;;;;;;8.94;80.91;102978.97;6098823;19;20010;-75
2023/05/19 00:03:57;;;;;;;11.13;5.47;;;;;;;8.95;80.90;102975.47;6099099;19;20010;-76
2023/05/19 00:06:04;;;;;;;10.25;5.32;;;;;;;8.95;80.92;102978.09;6096593;19;20011;-75
2023/05/19 00:08:12;;;;;;;10.63;5.70;;;;;;;8.88;81.34;102979.84;6093777;19;20414;-75
2023/05/19 00:10:19;;;;;;;12.35;5.75;;;;;;;8.85;81.80;102977.22;6093649;19;20097;-75
2023/05/19 00:12:25;;;;;;;13.85;5.00;;;;;;;8.85;81.87;102973.75;6092769;19;20013;-75
2023/05/19 00:14:33;;;;;;;15.80;6.38;;;;;;;8.81;82.06;102977.22;6091339;19;20538;-76
2023/05/19 00:16:42;;;;;;;12.02;5.10;;;;;;;8.75;82.37;102967.59;6093107;19;20481;-76
2023/05/19 00:18:52;;;;;;;13.45;5.85;;;;;;;8.72;82.37;102967.59;6094432;19;20031;-76
2023/05/19 00:20:59;;;;;;;10.77;5.05;;;;;;;8.75;81.82;102963.22;6095349;19;20013;-76
2023/05/19 00:23:05;;;;;;;11.40;5.80;;;;;;;8.82;81.60;102966.75;6096919;19;20209;-76
2023/05/19 00:25:11;;;;;;;12.98;5.97;;;;;;;8.75;81.80;102975.47;6098135;19;20035;-76
2023/05/19 00:27:16;;;;;;;16.13;5.45;;;;;;;8.73;82.12;102977.22;6096139;19;20017;-76
2023/05/19 00:29:27;;;;;;;12.15;5.10;;;;;;;8.73;81.86;102969.34;6097922;19;20034;-76
2023/05/19 00:31:32;;;;;;;15.48;5.53;;;;;;;8.74;82.08;102977.22;6096965;19;20011;-76
2023/05/19 00:33:38;;;;;;;12.80;6.40;;;;;;;8.73;82.34;102969.34;6093046;19;20483;-77
2023/05/19 00:35:46;;;;;;;9.68;4.93;;;;;;;8.77;81.83;102977.22;6092915;19;20007;-76
2023/05/19 00:37:53;;;;;;;13.13;5.63;;;;;;;8.69;82.49;102972.81;6095014;19;20006;-77
2023/05/19 00:39:58;;;;;;;13.23;5.70;;;;;;;8.65;82.80;102981.56;6094430;19;20045;-76
2023/05/19 00:42:07;;;;;;;14.68;5.75;;;;;;;8.63;82.75;102976.31;6096424;19;20319;-76
2023/05/19 00:44:12;;;;;;;16.08;6.13;;;;;;;8.68;82.51;102974.56;6095245;19;20062;-76
2023/05/19 00:46:17;;;;;;;13.20;5.63;;;;;;;8.69;82.31;102973.72;6095805;19;20007;-76
2023/05/19 00:48:23;;;;;;;13.27;5.32;;;;;;;8.63;83.04;102978.06;6102808;19;20141;-76
2023/05/19 00:50:29;;;;;;;12.00;5.55;;;;;;;8.63;82.82;102978.91;6099676;19;20046;-77
2023/05/19 00:52:37;;;;;;;15.20;5.93;;;;;;;8.64;82.82;102979.81;6096639;19;20011;-76
2023/05/19 00:54:43;;;;;;;10.80;5.22;;;;;;;8.58;82.84;102972.78;6102372;19;20290;-76
2023/05/19 00:56:50;;;;;;;11.98;4.80;;;;;;;8.53;83.29;102974.53;6102001;19;20049;-76
2023/05/19 00:58:56;;;;;;;13.18;5.20;;;;;;;8.49;83.58;102970.19;6101614;19;20266;-76
2023/05/19 01:01:05;;;;;;;16.02;5.78;;;;;;;8.46;83.17;102967.56;6097528;19;20340;-76
2023/05/19 01:03:13;;;;;;;12.55;5.35;;;;;;;8.45;82.90;102965.78;6102739;19;20006;-77
2023/05/19 01:05:20;;;;;;;11.13;5.75;;;;;;;8.44;83.51;102966.66;6098551;19;20249;-76
2023/05/19 01:07:26;;;;;;;12.52;5.45;;;;;;;8.41;83.28;102964.03;6103150;19;20037;-75
2023/05/19 01:09:34;;;;;;;16.42;6.55;;;;;;;8.39;83.50;102969.25;6103298;19;20843;-76
2023/05/19 01:11:42;;;;;;;11.20;5.57;;;;;;;8.39;83.22;102960.50;6100869;19;20007;-76
2023/05/19 01:13:48;;;;;;;13.90;5.75;;;;;;;8.42;83.31;102965.78;6098213;19;20007;-76
2023/05/19 01:16:02;;;;;;;12.45;5.35;;;;;;;8.37;83.50;102965.72;6098288;19;20007;-76
2023/05/19 01:18:13;;;;;;;13.10;5.82;;;;;;;8.32;83.65;102968.34;6097364;19;20006;-77
2023/05/19 01:20:27;;;;;;;15.27;5.63;;;;;;;8.26;84.01;102960.47;6097448;19;21050;-77
2023/05/19 01:23:08;;;;;;;15.60;6.13;;;;;;;8.28;83.76;102957.84;6094847;19;20030;-76
2023/05/19 01:25:47;;;;;;;14.57;6.32;;;;;;;8.19;84.02;102957.81;6094658;19;20686;-76
2023/05/19 01:28:34;;;;;;;15.10;6.20;;;;;;;8.19;83.95;102949.94;6094943;19;20017;-76
2023/05/19 01:30:45;;;;;;;17.10;5.85;;;;;;;8.13;84.48;102951.69;6095662;19;20027;-75
2023/05/19 01:32:53;;;;;;;16.77;6.72;;;;;;;8.12;84.33;102956.94;6098005;19;20011;-78
2023/05/19 01:34:59;;;;;;;20.50;6.20;;;;;;;8.11;84.71;102952.56;6097205;19;20462;-76
2023/05/19 01:37:05;;;;;;;16.00;5.88;;;;;;;8.11;84.73;102957.81;6098400;19;20007;-75
2023/05/19 01:39:10;;;;;;;15.35;6.25;;;;;;;8.10;84.68;102953.44;6098029;19;20762;-77
2023/05/19 01:41:16;;;;;;;16.30;6.90;;;;;;;8.07;85.19;102961.28;6099413;19;20007;-76
2023/05/19 01:43:30;;;;;;;14.55;6.00;;;;;;;8.03;84.71;102951.63;6099464;19;20002;-76
2023/05/19 01:45:36;;;;;;;18.58;7.05;;;;;;;8.00;84.93;102949.88;6100133;19;20082;-76
2023/05/19 01:47:53;;;;;;;14.75;6.32;;;;;;;8.00;84.93;102949.00;6097418;19;20006;-76
2023/05/19 01:50:01;;;;;;;18.13;6.40;;;;;;;7.98;85.25;102948.13;6096393;19;20511;-76
2023/05/19 01:52:07;;;;;;;21.15;6.53;;;;;;;7.97;85.23;102949.00;6097884;19;20006;-76
2023/05/19 01:54:12;;;;;;;16.77;6.40;;;;;;;7.98;85.44;102953.38;6093940;19;20453;-78
2023/05/19 01:56:28;;;;;;;16.35;7.03;;;;;;;7.96;85.77;102945.53;6097125;19;20010;-77
2023/05/19 01:58:43;;;;;;;19.02;6.50;;;;;;;7.95;85.50;102942.88;6089476;19;20006;-76
2023/05/19 02:00:55;;;;;;;21.10;7.55;;;;;;;7.95;85.43;102938.50;6093286;19;20010;-76
2023/05/19 02:03:15;;;;;;;17.63;7.10;;;;;;;7.94;85.86;102930.69;6093306;19;20750;-75
2023/05/19 02:05:30;;;;;;;15.13;6.25;;;;;;;7.91;85.72;102924.56;6092533;19;20003;-76
2023/05/19 02:07:45;;;;;;;18.80;7.10;;;;;;;7.86;85.35;102922.78;6093695;19;20038;-76
2023/05/19 02:10:01;;;;;;;15.00;6.60;;;;;;;7.80;85.52;102923.63;6094666;19;20409;-76
2023/05/19 02:12:12;;;;;;;18.98;6.65;;;;;;;7.80;86.03;102934.09;6093183;19;20002;-75
2023/05/19 02:14:26;;;;;;;18.85;7.68;;;;;;;7.79;86.06;102924.50;6094509;19;20041;-76
2023/05/19 02:16:35;;;;;;;17.73;7.70;;;;;;;7.76;86.91;102924.47;6094421;19;20459;-77
2023/05/19 02:18:45;;;;;;;17.10;6.45;;;;;;;7.77;86.42;102928.88;6092484;19;20010;-75
2023/05/19 02:20:52;;;;;;;14.82;7.05;;;;;;;7.73;86.50;102934.06;6087666;19;19999;-75
2023/05/19 02:22:59;;;;;;;23.15;7.18;;;;;;;7.74;86.48;102928.84;6096136;19;20014;-76
2023/05/19 02:25:05;;;;;;;15.48;7.75;;;;;;;7.75;86.58;102927.97;6094620;19;20023;-76
2023/05/19 02:27:10;;;;;;;16.83;7.03;;;;;;;7.72;86.59;102924.47;6091148;19;20020;-75
2023/05/19 02:29:16;;;;;;;17.55;6.85;;;;;;;7.74;86.39;102930.56;6094866;19;20211;-77
2023/05/19 02:31:21;;;;;;;16.73;6.60;;;;;;;7.74;86.68;102931.47;6093875;19;20462;-75
2023/05/19 02:33:32;;;;;;;17.98;7.13;;;;;;;7.68;86.48;102923.56;6091879;19;20011;-76
2023/05/19 02:35:42;;;;;;;21.13;7.65;;;;;;;7.64;86.33;102927.06;6094050;19;20512;-75
2023/05/19 02:37:47;;;;;;;16.77;7.00;;;;;;;7.57;87.10;102925.25;6090012;19;20019;-75
2023/05/19 02:39:54;;;;;;;16.10;6.88;;;;;;;7.54;86.17;102925.25;6096376;19;20018;-75
2023/05/19 02:42:00;;;;;;;18.23;6.95;;;;;;;7.52;86.17;102924.38;6094775;19;20565;-75
2023/05/19 02:44:06;;;;;;;18.88;7.07;;;;;;;7.45;86.82;102926.94;6097211;19;20026;-76
2023/05/19 02:46:11;;;;;;;22.25;7.40;;;;;;;7.40;87.84;102926.03;6092905;19;20011;-76
2023/05/19 02:48:16;;;;;;;19.08;7.07;;;;;;;7.34;87.09;102918.13;6096111;19;20011;-75
2023/05/19 02:50:25;;;;;;;13.77;6.78;;;;;;;7.34;86.94;102918.13;6096967;19;20347;-76
2023/05/19 02:52:33;;;;;;;20.52;7.32;;;;;;;7.35;87.17;102922.53;6090999;19;20530;-76
2023/05/19 02:54:38;;;;;;;16.52;7.70;;;;;;;7.35;86.92;102914.69;6096759;19;20435;-76
2023/05/19 02:56:43;;;;;;;18.40;7.70;;;;;;;7.35;87.20;102911.19;6092236;19;20474;-75
2023/05/19 02:58:51;;;;;;;23.48;8.05;;;;;;;7.34;87.38;102915.53;6095669;19;20407;-77
2023/05/19 03:00:58;;;;;;;19.25;7.78;;;;;;;7.34;87.49;102915.53;6095477;19;20502;-77
2023/05/19 03:03:03;;;;;;;18.98;7.07;;;;;;;7.30;87.43;102913.78;6071180;19;20076;-76
2023/05/19 03:05:10;;;;;;;17.45;6.55;;;;;;;7.31;87.83;102915.50;6095858;19;20795;-76
2023/05/19 03:07:16;;;;;;;16.10;7.13;;;;;;;7.30;87.71;102913.78;6094862;19;20022;-75
2023/05/19 03:09:28;;;;;;;17.95;8.18;;;;;;;7.29;87.92;102906.78;6092591;19;20018;-75
2023/05/19 03:11:33;;;;;;;22.08;7.70;;;;;;;7.28;88.27;102910.25;6091272;19;20010;-76
2023/05/19 03:13:39;;;;;;;24.23;8.38;;;;;;;7.29;88.13;102908.53;6093630;19;20038;-76
2023/05/19 03:15:49;;;;;;;16.75;6.88;;;;;;;7.25;87.92;102905.88;6093038;19;20027;-77
2023/05/19 03:17:55;;;;;;;21.70;7.72;;;;;;;7.27;88.37;102903.31;6092617;19;20010;-76
2023/05/19 03:20:01;;;;;;;24.45;9.15;;;;;;;7.29;88.06;102904.16;6090943;19;20037;-76
2023/05/19 03:22:06;;;;;;;20.15;8.00;;;;;;;7.28;87.97;102909.41;6090600;19;20491;-76
2023/05/19 03:24:11;;;;;;;20.63;7.60;;;;;;;7.25;88.04;102905.88;6092310;19;21042;-76
2023/05/19 03:26:21;;;;;;;29.75;8.88;;;;;;;7.22;88.60;102905.88;6093409;19;20007;-76
2023/05/19 03:28:29;;;;;;;25.17;7.45;;;;;;;7.21;88.66;102903.25;6094803;19;20010;-76
2023/05/19 03:30:36;;;;;;;23.27;7.60;;;;;;;7.16;88.86;102895.38;6094797;19;20025;-75
2023/05/19 03:32:46;;;;;;;21.25;7.55;;;;;;;7.11;88.94;102893.56;6094123;19;20021;-76
2023/05/19 03:34:55;;;;;;;16.42;7.68;;;;;;;7.09;88.58;102896.19;6095198;19;20010;-76
2023/05/19 03:37:00;;;;;;;18.02;6.70;;;;;;;7.07;88.67;102895.31;6095403;19;20006;-76
2023/05/19 03:39:05;;;;;;;18.38;7.80;;;;;;;7.04;88.48;102893.53;6096451;19;20039;-76
2023/05/19 03:41:10;;;;;;;20.73;7.78;;;;;;;7.04;88.65;102895.28;6095256;19;20002;-76
2023/05/19 03:43:20;;;;;;;20.77;8.10;;;;;;;7.02;88.99;102894.41;6097941;19;20043;-76
2023/05/19 03:45:26;;;;;;;17.27;7.35;;;;;;;6.97;89.50;102894.34;6097549;19;20066;-76
2023/05/19 03:47:33;;;;;;;20.85;9.35;;;;;;;6.99;89.22;102897.88;6093777;19;20648;-76
2023/05/19 03:49:38;;;;;;;18.48;7.68;;;;;;;6.98;89.39;102901.34;6096563;19;20010;-76
2023/05/19 03:51:43;;;;;;;19.45;8.00;;;;;;;6.96;89.44;102899.59;6096175;19;20003;-76
2023/05/19 03:53:49;;;;;;;20.23;8.43;;;;;;;6.95;89.02;102901.34;6092288;19;20011;-75
2023/05/19 03:55:55;;;;;;;22.13;8.48;;;;;;;7.00;89.44;102903.97;6095940;19;20059;-75
2023/05/19 03:58:01;;;;;;;21.67;8.50;;;;;;;7.01;89.35;102908.34;6095382;19;20027;-76
2023/05/19 04:00:11;;;;;;;23.45;8.23;;;;;;;7.05;90.30;102907.47;6098225;19;20038;-77
2023/05/19 04:02:16;;;;;;;23.77;7.80;;;;;;;7.04;89.51;102905.75;6093762;19;20021;-76
2023/05/19 04:04:26;;;;;;;16.60;7.80;;;;;;;7.01;90.24;102909.22;6096680;19;21118;-77
2023/05/19 04:06:32;;;;;;;19.05;7.93;;;;;;;7.03;89.91;102906.63;6095482;19;20007;-76
2023/05/19 04:08:37;;;;;;;20.33;8.10;;;;;;;7.07;89.68;102899.66;6092632;19;20038;-76
2023/05/19 04:10:43;;;;;;;27.52;8.68;;;;;;;7.09;90.45;102905.78;6095629;19;20487;-77
2023/05/19 04:12:52;;;;;;;20.05;8.13;;;;;;;7.19;90.07;102907.59;6092579;19;20402;-76
2023/05/19 04:14:59;;;;;;;22.65;8.70;;;;;;;7.19;89.98;102900.63;6092085;19;20015;-76
2023/05/19 04:17:07;;;;;;;27.33;8.07;;;;;;;7.29;90.01;102905.91;6090567;19;20041;-76
2023/05/19 04:19:13;;;;;;;22.23;8.35;;;;;;;7.29;89.89;102903.28;6094756;19;20435;-78
2023/05/19 04:21:20;;;;;;;22.80;9.13;;;;;;;7.32;90.39;102913.75;6097360;19;20463;-76
2023/05/19 04:23:26;;;;;;;18.67;8.15;;;;;;;7.30;90.37;102913.78;6101446;19;20014;-76
2023/05/19 04:25:34;;;;;;;25.15;8.60;;;;;;;7.31;90.52;102915.50;6099080;19;20024;-75
2023/05/19 04:27:42;;;;;;;21.05;8.10;;;;;;;7.38;90.27;102914.69;6100354;19;20243;-75
2023/05/19 04:29:48;;;;;;;23.73;8.75;;;;;;;7.39;90.20;102918.19;6098027;19;20466;-77
2023/05/19 04:31:55;;;;;;;25.00;10.50;;;;;;;7.41;90.14;102921.69;6101092;19;20002;-75
2023/05/19 04:34:03;;;;;;;18.00;7.35;;;;;;;7.39;90.48;102919.03;6101004;19;20467;-75
2023/05/19 04:36:10;;;;;;;16.58;7.55;;;;;;;7.47;90.35;102921.72;6101016;19;20425;-75
2023/05/19 04:38:17;;;;;;;25.88;9.95;;;;;;;7.52;90.16;102921.75;6097333;19;20033;-76
2023/05/19 04:40:25;;;;;;;25.55;8.18;;;;;;;7.53;90.18;102916.53;6102249;19;20010;-75
2023/05/19 04:42:31;;;;;;;26.00;8.38;;;;;;;7.58;89.91;102921.78;6103760;19;20084;-75
2023/05/19 04:44:36;;;;;;;27.55;9.13;;;;;;;7.60;90.32;102913.06;6101436;19;20041;-76
2023/05/19 04:46:43;;;;;;;24.52;8.98;;;;;;;7.68;90.25;102913.97;6106560;19;20003;-80
2023/05/19 04:48:50;;;;;;;31.70;10.45;;;;;;;7.74;90.08;102912.25;6103429;19;20477;-79
2023/05/19 04:51:00;;;;;;;25.55;9.00;;;;;;;7.82;90.09;102916.69;6108250;19;20371;-79
2023/05/19 04:53:05;;;;;;;24.83;9.25;;;;;;;7.97;89.45;102912.34;6098676;19;20404;-78
2023/05/19 04:55:12;;;;;;;25.05;9.45;;;;;;;8.06;89.29;102921.13;6103642;19;20034;-79
2023/05/19 04:57:18;;;;;;;24.15;9.38;;;;;;;8.16;89.24;102923.75;6104127;19;20249;-79
2023/05/19 04:59:25;;;;;;;23.52;8.57;;;;;;;8.29;88.87;102923.81;6102887;19;20621;-79
2023/05/19 05:01:31;;;;;;;26.50;9.32;;;;;;;8.45;88.92;102927.38;6107190;19;20379;-79
2023/05/19 05:03:37;;;;;;;29.33;10.57;;;;;;;8.61;88.40;102923.03;6103092;19;20089;-81
2023/05/19 05:05:42;;;;;;;20.98;8.98;;;;;;;8.78;87.34;102923.91;6103344;19;20396;-80
2023/05/19 05:07:52;;;;;;;26.02;8.68;;;;;;;8.94;87.07;102918.66;6103408;19;20369;-79
2023/05/19 05:09:58;;;;;;;24.70;8.77;;;;;;;9.12;86.72;102928.28;6100554;19;20014;-80
2023/05/19 05:12:06;;;;;;;24.83;9.10;;;;;;;9.23;86.08;102924.75;6102777;19;20015;-80
2023/05/19 05:14:13;;;;;;;27.35;10.00;;;;;;;9.39;85.73;102922.09;6101405;19;20657;-81
2023/05/19 05:16:19;;;;;;;23.35;8.60;;;;;;;9.57;85.73;102929.94;6104377;19;20010;-80
2023/05/19 05:18:29;;;;;;;27.90;9.85;;;;;;;9.77;84.99;102926.34;6105528;19;20491;-80
2023/05/19 05:20:35;;;;;;;24.95;8.48;;;;;;;9.80;84.04;102929.00;6105865;19;20014;-81
2023/05/19 05:22:41;;;;;;;29.17;9.77;;;;;;;9.96;83.91;102924.56;6105678;19;20002;-80
2023/05/19 05:24:54;;;;;;;26.75;9.88;;;;;;;10.17;83.01;102923.56;6106002;19;20011;-81
2023/05/19 05:27:00;;;;;;;30.92;10.98;;;;;;;10.34;82.43;102927.00;6104333;19;20121;-79
2023/05/19 05:29:05;;;;;;;21.23;8.65;;;;;;;10.44;81.56;102930.44;6105041;19;20501;-80
2023/05/19 05:31:11;;;;;;;27.88;8.65;;;;;;;10.62;81.79;102921.56;6103788;19;20502;-79
2023/05/19 05:33:16;;;;;;;22.73;9.70;;;;;;;10.50;81.03;102931.25;6103005;19;20016;-79
2023/05/19 05:35:26;;;;;;;23.38;8.57;;;;;;;10.64;81.38;102938.22;6101503;19;20018;-80
2023/05/19 05:37:32;;;;;;;21.67;9.15;;;;;;;10.64;80.08;102936.47;6106257;19;20062;-79
2023/05/19 05:39:37;;;;;;;19.88;8.65;;;;;;;10.67;80.01;102936.44;6106098;19;20027;-81
2023/05/19 05:41:45;;;;;;;21.80;8.73;;;;;;;10.85;80.27;102932.78;6106362;19;20013;-81
2023/05/19 05:43:51;;;;;;;23.45;8.50;;;;;;;10.98;79.93;102929.16;6101576;19;20007;-80
2023/05/19 05:45:58;;;;;;;26.58;8.60;;;;;;;11.08;79.25;102929.94;6102296;19;20515;-80
2023/05/19 05:48:04;;;;;;;22.20;9.10;;;;;;;11.16;78.78;102924.59;6101581;19;20038;-80
2023/05/19 05:50:11;;;;;;;21.98;9.30;;;;;;;11.15;78.65;102931.63;6101480;19;20006;-81
2023/05/19 05:52:17;;;;;;;22.23;8.05;;;;;;;11.31;77.89;102926.22;6095203;19;20468;-80
2023/05/19 05:54:29;;;;;;;21.90;8.13;;;;;;;11.45;78.08;102928.72;6100371;19;20474;-76
2023/05/19 05:56:36;;;;;;;22.17;8.13;;;;;;;11.62;77.25;102929.41;6097718;19;20011;-76
2023/05/19 05:58:46;;;;;;;18.17;7.15;;;;;;;11.79;77.00;102929.19;6094619;19;20388;-76
2023/05/19 06:00:56;;;;;;;16.80;7.40;;;;;;;11.37;76.76;102920.88;6095813;19;20007;-76
2023/05/19 06:03:01;;;;;;;18.90;7.03;;;;;;;11.07;77.89;102912.41;6096409;19;20046;-76
2023/05/19 06:05:09;;;;;;;19.83;8.00;;;;;;;10.96;78.39;102919.53;6099425;19;20046;-76
2023/05/19 06:07:15;;;;;;;17.02;7.53;;;;;;;11.20;78.40;102927.19;6095588;19;20081;-76
2023/05/19 06:09:33;;;;;;;19.23;8.60;;;;;;;11.77;77.30;102917.78;6094262;19;20015;-76
2023/05/19 06:11:38;;;;;;;16.83;6.90;;;;;;;11.99;76.75;102923.72;6095853;19;20006;-77
2023/05/19 06:13:46;;;;;;;18.52;8.00;;;;;;;12.40;75.57;102922.25;6096230;19;20013;-76
2023/05/19 06:15:56;;;;;;;18.10;7.57;;;;;;;12.64;74.21;102924.53;6098915;19;20070;-76
2023/05/19 06:18:04;;;;;;;16.73;7.22;;;;;;;12.60;73.27;102921.97;6095652;19;20054;-77
2023/05/19 06:20:11;;;;;;;15.68;6.93;;;;;;;12.61;72.97;102918.41;6096487;19;20506;-76
2023/05/19 06:22:20;;;;;;;20.95;8.07;;;;;;;12.58;73.15;102921.97;6093331;19;20038;-75
2023/05/19 06:24:29;;;;;;;15.77;7.13;;;;;;;12.75;72.41;102913.81;6099265;19;20006;-76
2023/05/19 06:26:35;;;;;;;15.98;6.32;;;;;;;12.82;71.93;102915.47;6101499;19;20482;-76
2023/05/19 06:28:40;;;;;;;16.27;6.68;;;;;;;12.87;72.25;102915.38;6097556;19;20098;-76
2023/05/19 06:30:48;;;;;;;13.88;7.00;;;;;;;13.02;71.15;102916.88;6088894;19;20002;-76
2023/05/19 06:32:56;;;;;;;15.35;6.93;;;;;;;13.09;71.04;102923.81;6095564;19;20113;-76
2023/05/19 06:35:01;;;;;;;13.10;6.07;;;;;;;13.29;70.25;102921.69;6094340;19;20019;-75
2023/05/19 06:37:06;;;;;;;14.63;6.28;;;;;;;13.04;69.78;102928.28;6094284;19;20477;-76
2023/05/19 06:39:11;;;;;;;13.40;6.10;;;;;;;13.23;70.25;102927.06;6088845;19;20013;-76
2023/05/19 06:41:20;;;;;;;14.32;7.07;;;;;;;13.53;69.37;102917.72;6091027;19;20010;-75
2023/05/19 06:43:25;;;;;;;12.20;6.00;;;;;;;13.65;69.07;102919.25;6095975;19;20346;-75
2023/05/19 06:45:33;;;;;;;13.35;5.60;;;;;;;13.91;68.35;102916.06;6098286;19;20011;-74
2023/05/19 06:47:43;;;;;;;15.13;6.75;;;;;;;14.03;67.95;102923.75;6100656;19;20519;-76
2023/05/19 06:49:53;;;;;;;15.27;6.53;;;;;;;14.07;67.17;102926.31;6102052;19;20027;-75
2023/05/19 06:51:59;;;;;;;12.57;5.75;;;;;;;14.40;67.12;102920.28;6102172;19;20009;-74
2023/05/19 06:54:04;;;;;;;11.75;5.75;;;;;;;14.13;66.30;102918.25;6096386;19;20514;-74
2023/05/19 06:56:09;;;;;;;14.35;6.35;;;;;;;14.22;66.30;102920.69;6102479;19;20366;-74
2023/05/19 06:58:14;;;;;;;18.80;5.60;;;;;;;14.30;65.82;102924.03;6099964;19;20010;-76
2023/05/19 07:00:22;;;;;;;11.13;5.35;;;;;;;14.43;67.00;102924.63;6100243;19;20015;-74
2023/05/19 07:02:33;;;;;;;11.90;5.30;;;;;;;14.50;66.13;102921.75;6100694;19;20013;-75
2023/05/19 07:04:41;;;;;;;12.05;5.50;;;;;;;14.47;65.88;102919.19;6100768;19;20109;-74
2023/05/19 07:06:49;;;;;;;10.35;5.43;;;;;;;14.58;64.85;102923.41;6097036;19;20006;-75
2023/05/19 07:08:58;;;;;;;11.23;5.35;;;;;;;14.59;65.42;102919.88;6100621;19;20089;-75
2023/05/19 07:11:03;;;;;;;11.85;6.07;;;;;;;14.57;65.41;102925.19;6098540;19;20589;-74
2023/05/19 07:13:08;;;;;;;11.05;4.80;;;;;;;14.82;65.44;102917.50;6103835;19;20039;-74
2023/05/19 07:15:13;;;;;;;13.25;5.47;;;;;;;14.88;64.82;102914.72;6101213;19;20008;-75
2023/05/19 07:17:21;;;;;;;14.15;5.45;;;;;;;14.60;64.39;102916.31;6097201;19;20473;-75
2023/05/19 07:19:29;;;;;;;11.75;4.88;;;;;;;14.88;64.28;102909.41;6096704;19;20455;-75
2023/05/19 07:21:37;;;;;;;10.65;5.20;;;;;;;14.96;64.32;102914.53;6096915;19;20042;-75
2023/05/19 07:23:44;;;;;;;9.55;5.45;;;;;;;15.17;63.39;102922.81;6096117;19;20002;-75
2023/05/19 07:25:50;;;;;;;10.20;5.50;;;;;;;15.21;63.39;102922.69;6090778;19;20007;-75
2023/05/19 07:27:55;;;;;;;14.23;5.50;;;;;;;15.72;62.48;102911.59;6072577;19;20058;-75
2023/05/19 07:30:02;;;;;;;9.63;5.40;;;;;;;16.09;62.03;102914.91;6090225;19;20518;-75
2023/05/19 07:32:08;;;;;;;10.75;5.32;;;;;;;16.19;61.26;102911.94;6092291;19;20007;-75
2023/05/19 07:34:13;;;;;;;9.38;5.10;;;;;;;15.72;60.77;102905.44;6093639;19;20002;-75
2023/05/19 07:36:18;;;;;;;13.30;5.70;;;;;;;16.05;60.95;102910.63;6092046;19;20102;-75
2023/05/19 07:38:30;;;;;;;14.32;5.80;;;;;;;16.10;59.58;102909.56;6094599;19;20355;-76
2023/05/19 07:40:35;;;;;;;11.50;5.25;;;;;;;16.26;58.85;102899.34;6099420;19;20033;-75
2023/05/19 07:42:40;;;;;;;11.30;5.43;;;;;;;16.39;58.94;102897.16;6096199;19;20011;-72
2023/05/19 07:44:45;;;;;;;11.18;5.50;;;;;;;16.42;59.21;102903.25;6096590;19;20041;-74
2023/05/19 07:46:50;;;;;;;9.25;4.70;;;;;;;16.30;57.99;102893.03;6095774;19;20007;-74
2023/05/19 07:48:55;;;;;;;9.48;4.97;;;;;;;16.04;58.69;102900.94;6098239;19;20370;-75
2023/05/19 07:51:00;;;;;;;11.50;4.85;;;;;;;16.09;57.85;102899.00;6094314;19;21489;-74
2023/05/19 07:53:06;;;;;;;10.50;5.25;;;;;;;16.21;57.07;102899.47;6086271;19;20011;-74
2023/05/19 07:55:14;;;;;;;10.98;4.97;;;;;;;16.28;57.13;102899.31;6093905;19;20007;-75
2023/05/19 07:57:19;;;;;;;8.82;4.63;;;;;;;16.35;57.24;102893.75;6101129;19;20018;-74
2023/05/19 07:59:26;;;;;;;8.55;4.30;;;;;;;16.58;55.59;102890.34;6104199;19;20586;-75
2023/05/19 08:01:31;;;;;;;11.27;5.05;;;;;;;16.42;54.69;102900.59;6102529;19;20003;-74
2023/05/19 08:03:37;;;;;;;11.35;4.78;;;;;;;16.72;55.02;102889.00;6102562;19;20549;-74
2023/05/19 08:05:42;;;;;;;10.43;4.43;;;;;;;16.88;53.25;102884.97;6102615;19;20484;-74
2023/05/19 08:07:47;;;;;;;10.68;4.90;;;;;;;16.89;53.90;102886.69;6102778;19;20293;-74
2023/05/19 08:09:52;;;;;;;12.75;4.88;;;;;;;16.91;54.62;102889.31;6100484;19;20738;-74
2023/05/19 08:12:01;;;;;;;11.07;5.32;;;;;;;17.27;54.86;102889.78;6100921;19;20014;-74
2023/05/19 08:14:06;;;;;;;9.10;4.38;;;;;;;17.85;51.21;102892.09;6098987;19;20035;-73
2023/05/19 08:16:11;;;;;;;9.93;4.32;;;;;;;17.90;49.68;102880.34;6101139;19;20502;-73
2023/05/19 08:18:18;;;;;;;7.35;3.95;;;;;;;18.16;49.53;102881.13;6100569;19;20545;-74
2023/05/19 08:20:25;;;;;;;11.35;4.55;;;;;;;18.23;49.82;102879.97;6083157;19;20018;-76
2023/05/19 08:22:33;;;;;;;10.07;5.18;;;;;;;18.75;49.28;102872.50;6101657;19;20019;-74
2023/05/19 08:24:42;;;;;;;9.88;4.45;;;;;;;18.61;49.88;102878.38;6103284;19;20015;-74
2023/05/19 08:26:47;;;;;;;9.32;4.68;;;;;;;18.61;49.64;102875.69;6100375;19;20343;-75
2023/05/19 08:28:55;;;;;;;9.85;4.13;;;;;;;18.60;48.68;102868.66;6107167;19;20007;-74
2023/05/19 08:31:00;;;;;;;7.30;3.92;;;;;;;18.63;48.44;102865.84;6103741;19;20003;-76
2023/05/19 08:33:05;;;;;;;8.88;4.03;;;;;;;18.73;48.85;102860.16;6106522;19;20799;-73
2023/05/19 08:35:11;;;;;;;10.90;3.72;;;;;;;18.60;47.37;102862.47;6077427;19;20013;-75
2023/05/19 08:37:17;;;;;;;8.07;3.75;;;;;;;18.53;48.27;102867.16;6100542;19;20555;-74
2023/05/19 08:39:27;;;;;;;9.32;4.07;;;;;;;18.60;47.87;102857.16;6104186;19;20042;-74
2023/05/19 08:41:32;;;;;;;8.98;4.25;;;;;;;18.58;48.45;102859.00;6104452;19;20007;-74
2023/05/19 08:43:38;;;;;;;6.47;3.53;;;;;;;17.81;47.19;102858.59;6102520;19;20021;-76
2023/05/19 08:45:48;;;;;;;8.02;3.65;;;;;;;18.07;47.56;102857.56;6105334;19;20026;-76
2023/05/19 08:47:56;;;;;;;6.47;3.25;;;;;;;18.48;47.07;102852.31;6101398;19;20046;-74
2023/05/19 08:50:08;;;;;;;8.95;3.70;;;;;;;18.42;45.85;102848.97;6097644;19;20006;-74
2023/05/19 08:52:23;;;;;;;9.07;3.75;;;;;;;18.68;46.70;102849.69;6098596;19;20082;-74
2023/05/19 08:54:36;;;;;;;8.63;3.67;;;;;;;18.85;45.15;102841.88;6102377;19;20010;-74
2023/05/19 08:56:45;;;;;;;7.90;3.42;;;;;;;19.09;44.64;102839.06;6099593;19;20007;-73
2023/05/19 08:58:58;;;;;;;8.10;3.40;;;;;;;19.13;45.02;102832.66;6105900;19;20011;-75
2023/05/19 09:01:06;;;;;;;10.50;4.03;;;;;;;18.85;44.47;102833.91;6102577;19;20035;-76
2023/05/19 09:03:12;;;;;;;8.20;3.35;;;;;;;18.87;44.61;102844.47;6102297;19;20045;-76
2023/05/19 09:05:22;;;;;;;6.97;3.50;;;;;;;19.20;43.79;102836.78;6102646;19;20433;-76
2023/05/19 09:07:34;;;;;;;5.95;3.30;;;;;;;19.73;43.36;102838.78;6104947;19;20014;-73
2023/05/19 09:09:42;;;;;;;7.67;3.37;;;;;;;20.09;42.30;102839.75;6104589;19;20027;-73
2023/05/19 09:11:48;;;;;;;9.75;3.33;;;;;;;20.14;41.41;102833.28;6100690;19;20027;-73
2023/05/19 09:13:53;;;;;;;9.60;3.28;;;;;;;20.34;39.54;102842.09;6099090;19;20026;-73
2023/05/19 09:15:59;;;;;;;8.05;3.10;;;;;;;20.02;38.35;102839.19;6096480;19;20019;-73
2023/05/19 09:18:14;;;;;;;7.15;3.08;;;;;;;20.01;39.22;102834.81;6099516;19;20011;-73
2023/05/19 09:20:19;;;;;;;7.55;3.25;;;;;;;19.86;40.15;102835.56;6101577;19;20074;-73
2023/05/19 09:22:26;;;;;;;9.65;3.58;;;;;;;20.35;40.00;102828.69;6099552;19;20337;-73
2023/05/19 09:24:31;;;;;;;9.75;3.28;;;;;;;20.15;39.01;102832.31;6101817;19;20003;-73
2023/05/19 09:26:40;;;;;;;9.88;3.38;;;;;;;19.44;39.34;102836.59;6091245;19;20627;-73
2023/05/19 09:28:48;;;;;;;7.70;3.38;;;;;;;19.35;40.74;102829.00;6099464;19;20506;-72
2023/05/19 09:31:13;;;;;;;8.45;3.38;;;;;;;19.63;40.06;102834.78;6101774;19;20003;-72
2023/05/19 09:33:22;;;;;;;8.02;3.28;;;;;;;19.74;40.65;102839.66;6101014;19;20015;-72
2023/05/19 09:35:30;;;;;;;6.40;3.22;;;;;;;19.86;39.78;102835.56;6074513;19;20733;-72
2023/05/19 09:37:38;;;;;;;9.90;3.20;;;;;;;19.50;38.71;102829.16;6099769;19;20003;-72
2023/05/19 09:39:50;;;;;;;8.27;3.03;;;;;;;19.91;39.43;102831.72;6097769;19;20063;-72
2023/05/19 09:41:57;;;;;;;9.02;3.10;;;;;;;20.23;38.96;102826.59;6100429;19;20010;-71
2023/05/19 09:44:02;;;;;;;7.35;2.90;;;;;;;20.66;39.16;102826.28;6098089;19;20017;-72
2023/05/19 09:46:09;;;;;;;7.15;2.97;;;;;;;19.65;39.10;102840.06;6093896;19;20014;-72
2023/05/19 09:48:20;;;;;;;8.23;3.10;;;;;;;19.84;37.81;102838.28;6095579;19;20011;-71
2023/05/19 09:50:28;;;;;;;7.10;3.13;;;;;;;20.29;37.68;102828.97;6097722;19;20050;-72
2023/05/19 09:52:37;;;;;;;8.65;3.13;;;;;;;20.60;37.62;102830.97;6089904;19;19998;-72